Detall de PIREP

Printer-friendly versionPDF version

[2014/04/19 12:11:00]
Flight IATA:CT1004
Pilot Number:012
Company ICAO:CAT
Aircraft Type:B463/A
PAX:41
Aircraft Registration:PAX
Departing Airport: EGLC
Destination Airport: LEBL
Alternate Airport:LEPA
Online: VATSIM
Route:LYD UM189 DRAKE UL151 SITET UN859 PUMAL
Flight Level:F290
No Slew and time accel
No pause
Crash detect
Detect pilot in Cockpit between each 30 and 45 minutes
12:11 Zero fuel Weight: 64182 Lbs, Fuel Weight: 17508 Lbs
12:11 VATSIM:EGLC 191150Z AUTO 06009KT 010V080 9999 BKN030/// 11/03 Q1018
12:11 VATSIM:LEBL 191130Z 12011KT 100V160 9999 FEW018 BKN040 17/10 Q1007 NOSIG
12:11 EASTER CHARTER
12:18 Parking Brakes off
12:23 Take-off
12:23 Take off Weight: 81359 Lbs
12:23 Wind: 062º @ 008 Knots Heading: 090º
12:23 POS N51º 30´ 18´´ E000º 03´ 33´´
12:23 Flaps:2 at 133 Knots
12:23 Gear Up: 134 Knots
12:23 Flaps:1 at 153 Knots
12:23 Flaps:0 at 156 Knots
12:34 TOC
12:34 Fuel Weight: 15321 Lb
12:38 Wind:016º@024 Knots Heading: 217º Ground Speed: 447 Knots Altitude 29130 ft
12:53 Wind:004º@037 Knots Heading: 162º Ground Speed: 454 Knots Altitude 29025 ft
13:08 Wind:346º@039 Knots Heading: 183º Ground Speed: 460 Knots Altitude 28923 ft
13:23 Wind:329º@024 Knots Heading: 172º Ground Speed: 437 Knots Altitude 28854 ft
13:38 Wind:289º@017 Knots Heading: 174º Ground Speed: 418 Knots Altitude 28854 ft
13:43 TOD
13:43 Fuel Weight: 9123 Lb
13:53 Wind:302º@031 Knots Heading: 180º Ground Speed: 293 Knots Altitude 11886 ft
14:03 Flaps:1 at 195 Knots
14:04 Gear Down: 155 Knots
14:04 Flaps:2 at 155 Knots
14:04 Flaps:3 at 135 Knots
14:05 Flaps:4 at 113 Knots
14:08 Wind:119º@013 Knots Heading: 070º Ground Speed: 119 Knots Altitude 429 ft
14:08 TouchDown:Rate -107 ft/min Speed: 107 Knots
14:09 VATSIM:LEBL 191330Z 11013KT 080V140 9999 FEW018 BKN040 17/09 Q1006 NOSIG
14:09 Land
14:09 Wind:119º@013 Knots
14:09 Heading: 082º
14:09 Flight Duration: 01:46
14:09 Landing Weight: 72121 Lbs
14:09 POS N41º 17´ 57´´ E002º 05´ 04´´
14:13 Parking brakes on
14:13 Block to Block Duration: 01:55
14:13 Final Fuel: 7784 Lbls
14:13 Spent Fuel: 9724 Lbls
14:13 Flight Length: 683 NM
14:13 TOD Land Length: 116 NM

Exportar CSV

Powered by Drupal - Modified by Danger4k